This is the latest recevied weather packets stored in our database for station/object W0DP-11. If no packets are shown the sender has not sent any weather packets the latest 10 day(s).
| Time | Temp. | Humidity | Pressure | Rain* | Wind** | Luminosity | Snow |
|---|---|---|---|---|---|---|---|
| 1777414217 | 5° C | 80% | 1013.3 hPa | 0 mm | - | - | - |
| 1777413017 | 5° C | 81% | 1012.9 hPa | 0 mm | - | - | - |
| 1777410017 | 5° C | 83% | 1012.9 hPa | 0 mm | - | - | - |
| 1777409417 | 4.44° C | 86% | 1012.7 hPa | 0 mm | - | - | - |
| 1777408217 | 4.44° C | 87% | 1012.4 hPa | 0 mm | - | - | - |
| 1777407017 | 4.44° C | 87% | 1012.4 hPa | 0 mm | - | - | - |
| 1777389016 | 2.22° C | 93% | 1008.7 hPa | 0 mm | - | - | - |
| 1777386036 | 2.22° C | 95% | 1008 hPa | 0 mm | - | - | - |
| 1777378856 | 1.67° C | 95% | 1005.8 hPa | 0 mm | - | - | - |
| 1777374616 | 1.11° C | 95% | 1004.3 hPa | 0 mm | - | - | - |
| 1777371616 | 1.11° C | 95% | 1003.5 hPa | 0.25 mm | - | - | - |
| 1777368616 | 0.56° C | 96% | 1002.7 hPa | 0.51 mm | - | - | - |
| 1777368016 | 0.56° C | 96% | 1002.5 hPa | 0.51 mm | - | - | - |
| 1777367415 | 0.56° C | 96% | 1002.2 hPa | 0.51 mm | - | - | - |
| 1777364438 | 0.56° C | 96% | 1001.5 hPa | 0.51 mm | - | - | - |
| 1777362617 | 0.56° C | 97% | 1001.2 hPa | 0.25 mm | - | - | - |
| 1777359637 | 0.56° C | 96% | 1000.9 hPa | 1.78 mm | - | - | - |
| 1777357817 | 1.67° C | 95% | 1000.6 hPa | 2.29 mm | - | - | - |
| 1777357237 | 2.22° C | 96% | 1000.4 hPa | 2.29 mm | - | - | - |
| 1777353617 | 3.33° C | 96% | 999.8 hPa | 0.76 mm | - | - | - |
| 1777351218 | 3.33° C | 96% | 999.4 hPa | 0.51 mm | - | - | - |
| 1777347017 | 3.89° C | 97% | 999.2 hPa | 1.02 mm | - | - | - |
| 1777342217 | 3.89° C | 98% | 999.4 hPa | 2.03 mm | - | - | - |
| 1777338617 | 3.33° C | 98% | 999.5 hPa | 2.54 mm | - | - | - |
| 1777334437 | 3.89° C | 98% | 1000 hPa | 3.05 mm | - | - | - |
* Rain latest hour (hover to see other rain measurements)
** Current wind speed in m/s (hover to see current wind gust speed)